Time;durP1;ratioP1;P1;durP2;ratioP2;P2;SDS_P1;SDS_P2;PMS_P1;PMS_P2;Temp;Humidity;BMP_temperature;BMP_pressure;BME280_temperature;BME280_humidity;BME280_pressure;Samples;Min_cycle;Max_cycle;Signal;HPM_P1;HPM_P2
2023/04/08 00:01:02;;;;;;;6.38;3.78;;;9.20;99.90;;;;;;5116324;28;20799;-51
2023/04/08 00:03:29;;;;;;;4.75;3.63;;;9.30;99.90;;;;;;5116020;28;20416;-51
2023/04/08 00:05:56;;;;;;;4.97;3.15;;;9.20;99.90;;;;;;5116113;28;20420;-50
2023/04/08 00:08:25;;;;;;;5.35;3.17;;;9.20;99.90;;;;;;5115374;28;20416;-50
2023/04/08 00:10:52;;;;;;;5.72;3.30;;;9.30;99.90;;;;;;5115236;28;20420;-51
2023/04/08 00:13:19;;;;;;;5.28;3.05;;;9.30;99.90;;;;;;5114582;28;20677;-50
2023/04/08 00:15:47;;;;;;;4.35;3.05;;;9.30;99.90;;;;;;5115552;28;20887;-51
2023/04/08 00:18:15;;;;;;;5.55;3.00;;;9.30;99.90;;;;;;5116847;28;20558;-52
2023/04/08 00:20:43;;;;;;;4.33;2.90;;;9.40;99.90;;;;;;5116096;28;20423;-51
2023/04/08 00:23:10;;;;;;;4.38;2.90;;;9.30;99.90;;;;;;5115951;28;20415;-52
2023/04/08 00:25:39;;;;;;;3.90;2.90;;;9.30;99.90;;;;;;5115795;28;20413;-53
2023/04/08 00:28:06;;;;;;;4.82;2.88;;;9.20;99.90;;;;;;5116282;28;20774;-54
2023/04/08 00:30:33;;;;;;;4.10;3.00;;;9.20;99.90;;;;;;5114687;28;20846;-49
2023/04/08 00:33:00;;;;;;;4.85;2.80;;;9.30;99.90;;;;;;5115087;28;20431;-51
2023/04/08 00:35:27;;;;;;;5.05;3.17;;;9.30;99.90;;;;;;5115250;28;20894;-50
2023/04/08 00:37:55;;;;;;;4.65;2.83;;;9.20;99.90;;;;;;5115320;28;20439;-53
2023/04/08 00:40:22;;;;;;;4.80;2.10;;;9.00;99.90;;;;;;5115785;28;20443;-50
2023/04/08 00:42:50;;;;;;;4.72;2.60;;;9.00;99.90;;;;;;5115212;28;20731;-53
2023/04/08 00:45:18;;;;;;;4.45;2.67;;;9.00;99.90;;;;;;5114494;28;20914;-52
2023/04/08 00:47:45;;;;;;;5.35;3.38;;;9.10;99.90;;;;;;5115967;28;20420;-50
2023/04/08 00:50:12;;;;;;;4.32;2.85;;;9.10;99.90;;;;;;5115953;28;20878;-49
2023/04/08 00:52:39;;;;;;;5.20;3.13;;;9.10;99.90;;;;;;5114835;28;20416;-50
2023/04/08 00:55:07;;;;;;;4.03;2.20;;;9.10;99.90;;;;;;5113522;28;20424;-49
2023/04/08 00:57:35;;;;;;;5.85;3.47;;;9.00;99.90;;;;;;5113282;28;20442;-53
2023/04/08 01:00:05;;;;;;;4.03;2.67;;;9.00;99.90;;;;;;5113589;28;20420;-53
2023/04/08 01:02:42;;;;;;;4.07;3.05;;;9.10;99.90;;;;;;5113559;28;20847;-55
2023/04/08 01:05:13;;;;;;;5.87;2.90;;;9.20;99.90;;;;;;5114270;28;20416;-53
2023/04/08 01:07:45;;;;;;;4.18;3.03;;;9.20;99.90;;;;;;5114947;28;20416;-54
2023/04/08 01:10:17;;;;;;;4.17;2.80;;;9.20;99.90;;;;;;5114545;28;20774;-51
2023/04/08 01:12:50;;;;;;;3.90;2.70;;;9.30;99.90;;;;;;5115177;28;20419;-53
2023/04/08 01:15:19;;;;;;;4.70;2.80;;;9.30;99.90;;;;;;5114815;28;20507;-51
2023/04/08 01:17:47;;;;;;;4.38;2.65;;;9.30;99.90;;;;;;5114914;28;20832;-52
2023/04/08 01:20:15;;;;;;;3.80;2.80;;;9.10;99.90;;;;;;5114990;28;20835;-49
2023/04/08 01:22:55;;;;;;;4.90;3.40;;;9.10;99.90;;;;;;5114681;28;20677;-52
2023/04/08 01:25:26;;;;;;;4.50;2.40;;;9.10;99.90;;;;;;5114562;28;20838;-50
2023/04/08 01:27:57;;;;;;;4.80;3.00;;;9.10;99.90;;;;;;5115145;28;20765;-54
2023/04/08 01:30:25;;;;;;;6.35;3.50;;;9.10;99.90;;;;;;5114579;28;20415;-53
2023/04/08 01:32:54;;;;;;;7.20;3.88;;;9.00;99.90;;;;;;5114035;28;20854;-49
2023/04/08 01:35:22;;;;;;;5.03;2.97;;;8.90;99.90;;;;;;5112895;28;20733;-52
2023/04/08 01:37:51;;;;;;;5.77;3.60;;;8.90;99.90;;;;;;5114269;28;20819;-52
2023/04/08 01:40:19;;;;;;;4.95;3.10;;;8.80;99.90;;;;;;5114156;28;20455;-54
2023/04/08 01:42:48;;;;;;;5.90;3.50;;;8.70;99.90;;;;;;5114819;28;20434;-50
2023/04/08 01:45:18;;;;;;;3.90;2.65;;;8.80;99.90;;;;;;5114996;28;20412;-52
2023/04/08 01:47:47;;;;;;;3.90;2.40;;;8.80;99.90;;;;;;5115602;28;20503;-53
2023/04/08 01:50:15;;;;;;;4.30;3.30;;;8.90;99.90;;;;;;5115619;28;20835;-51
2023/04/08 01:52:44;;;;;;;4.88;2.90;;;9.00;99.90;;;;;;5115009;28;20515;-51
2023/04/08 01:55:12;;;;;;;4.90;3.13;;;8.90;99.90;;;;;;5115263;28;20823;-48
2023/04/08 01:57:41;;;;;;;5.20;2.57;;;8.80;99.90;;;;;;5114991;28;20436;-52
2023/04/08 02:00:10;;;;;;;6.43;3.50;;;8.80;99.90;;;;;;5114693;28;20448;-52
2023/04/08 02:02:40;;;;;;;5.27;3.10;;;8.90;99.90;;;;;;5115375;28;20424;-49
2023/04/08 02:05:08;;;;;;;5.18;3.40;;;8.90;99.90;;;;;;5114759;28;20515;-51
2023/04/08 02:07:35;;;;;;;5.38;3.40;;;8.80;99.90;;;;;;5115047;28;20421;-49
2023/04/08 02:10:03;;;;;;;4.00;2.80;;;8.80;99.90;;;;;;5114586;28;20504;-51
2023/04/08 02:12:30;;;;;;;4.60;3.10;;;8.80;99.90;;;;;;5114932;28;20425;-53
2023/04/08 02:14:57;;;;;;;5.20;3.42;;;8.80;99.90;;;;;;5113703;28;20416;-53
2023/04/08 02:17:30;;;;;;;4.70;2.55;;;8.80;99.90;;;;;;5115030;28;20424;-50
2023/04/08 02:20:05;;;;;;;5.00;3.00;;;8.80;99.90;;;;;;5114043;28;20417;-54
2023/04/08 02:22:43;;;;;;;4.15;3.22;;;8.90;99.90;;;;;;5114002;28;20430;-54
2023/04/08 02:25:14;;;;;;;4.63;3.25;;;9.00;99.90;;;;;;5114803;28;20421;-52
2023/04/08 02:27:42;;;;;;;7.28;3.35;;;8.90;99.90;;;;;;5114003;28;20429;-51
2023/04/08 02:30:13;;;;;;;5.05;3.10;;;8.90;99.90;;;;;;5114157;28;20827;-49
2023/04/08 02:32:41;;;;;;;5.60;3.60;;;9.00;99.90;;;;;;5113786;28;20426;-50
2023/04/08 02:35:11;;;;;;;5.20;3.50;;;9.00;99.90;;;;;;5117765;28;20416;-50
2023/04/08 02:37:39;;;;;;;6.65;4.18;;;8.90;99.90;;;;;;5116981;28;20432;-53
2023/04/08 02:40:23;;;;;;;5.40;3.30;;;8.90;99.90;;;;;;5115404;28;20719;-49
2023/04/08 02:42:50;;;;;;;6.85;4.90;;;9.00;99.90;;;;;;5115555;28;20519;-53
2023/04/08 02:45:17;;;;;;;6.80;3.28;;;9.00;99.90;;;;;;5116228;28;20451;-51
2023/04/08 02:47:45;;;;;;;5.43;3.60;;;9.00;99.90;;;;;;5117102;28;20523;-51
2023/04/08 02:50:13;;;;;;;5.50;4.00;;;8.90;99.90;;;;;;5117471;28;20412;-49
2023/04/08 02:52:41;;;;;;;6.70;3.97;;;8.70;99.90;;;;;;5117824;28;20835;-52
2023/04/08 02:55:10;;;;;;;4.80;3.60;;;8.70;99.90;;;;;;5117710;28;20425;-49
2023/04/08 02:57:37;;;;;;;6.28;4.03;;;8.70;99.90;;;;;;5117900;28;20534;-49
2023/04/08 03:00:06;;;;;;;6.63;3.90;;;8.70;99.90;;;;;;5116466;28;20415;-52
2023/04/08 03:02:33;;;;;;;7.60;4.20;;;8.70;99.90;;;;;;5117881;28;20424;-50
2023/04/08 03:05:00;;;;;;;6.60;3.50;;;8.70;99.90;;;;;;5117591;28;20416;-48
2023/04/08 03:07:29;;;;;;;7.07;3.83;;;8.60;99.90;;;;;;5117786;28;20416;-52
2023/04/08 03:09:56;;;;;;;8.30;4.55;;;8.60;99.90;;;;;;5117569;28;20424;-52
2023/04/08 03:12:23;;;;;;;7.30;3.97;;;8.60;99.90;;;;;;5117278;28;20428;-53
2023/04/08 03:14:51;;;;;;;7.32;4.10;;;8.60;99.90;;;;;;5118145;28;20420;-52
2023/04/08 03:17:18;;;;;;;6.90;4.40;;;8.60;99.90;;;;;;5117096;28;20525;-52
2023/04/08 03:19:45;;;;;;;7.23;4.57;;;8.60;99.90;;;;;;5117135;28;20495;-55
2023/04/08 03:22:13;;;;;;;8.20;4.00;;;8.50;99.90;;;;;;5117192;28;20424;-51
2023/04/08 03:24:42;;;;;;;9.80;4.60;;;8.40;99.90;;;;;;5116940;28;20895;-50
2023/04/08 03:27:11;;;;;;;7.80;4.28;;;8.40;99.90;;;;;;5116229;28;20420;-49
2023/04/08 03:29:38;;;;;;;7.53;3.90;;;8.50;99.90;;;;;;5116411;28;20409;-52
2023/04/08 03:32:05;;;;;;;6.82;3.80;;;8.60;99.90;;;;;;5116228;28;20844;-53
2023/04/08 03:34:34;;;;;;;7.47;4.50;;;8.70;99.90;;;;;;5115595;28;20495;-50
2023/04/08 03:37:01;;;;;;;5.85;3.90;;;8.70;99.90;;;;;;5115636;28;20715;-49
2023/04/08 03:39:29;;;;;;;5.60;3.33;;;8.70;99.90;;;;;;5116005;28;20505;-51
2023/04/08 03:41:59;;;;;;;5.55;3.42;;;8.80;99.90;;;;;;5116743;28;20428;-49
2023/04/08 03:44:26;;;;;;;5.00;3.05;;;8.80;99.90;;;;;;5115789;28;20443;-49
2023/04/08 03:46:54;;;;;;;6.50;3.92;;;8.80;99.90;;;;;;5116327;28;20424;-51
2023/04/08 03:49:21;;;;;;;6.85;3.60;;;8.80;99.90;;;;;;5115241;28;20415;-49
2023/04/08 03:51:48;;;;;;;5.70;2.80;;;8.80;99.90;;;;;;5115317;28;20431;-52
2023/04/08 03:54:15;;;;;;;6.88;3.30;;;8.80;99.90;;;;;;5115372;28;20430;-55
2023/04/08 03:56:42;;;;;;;6.15;3.65;;;8.80;99.90;;;;;;5113783;28;20428;-51
2023/04/08 03:59:11;;;;;;;5.57;3.00;;;8.70;99.90;;;;;;5113963;28;20435;-52
2023/04/08 04:01:38;;;;;;;5.87;2.87;;;8.70;99.90;;;;;;5113065;28;20463;-52
2023/04/08 04:04:05;;;;;;;5.05;2.65;;;8.70;99.90;;;;;;5114947;28;20508;-50
2023/04/08 04:06:32;;;;;;;5.13;3.08;;;8.60;99.90;;;;;;5114609;28;20428;-49
2023/04/08 04:09:00;;;;;;;7.45;3.60;;;8.70;99.90;;;;;;5114665;28;20745;-53
2023/04/08 04:11:27;;;;;;;8.10;4.78;;;8.70;99.90;;;;;;5116005;28;20430;-54
2023/04/08 04:13:54;;;;;;;5.38;3.13;;;8.60;99.90;;;;;;5115980;28;20420;-50
2023/04/08 04:16:22;;;;;;;5.20;2.90;;;8.60;99.90;;;;;;5116041;28;20894;-53
2023/04/08 04:18:50;;;;;;;6.18;2.88;;;8.70;99.90;;;;;;5116129;28;20434;-50
2023/04/08 04:21:17;;;;;;;6.20;3.47;;;8.70;99.90;;;;;;5114671;28;20514;-53
2023/04/08 04:23:44;;;;;;;6.17;2.90;;;8.70;99.90;;;;;;5113948;28;20408;-49
2023/04/08 04:26:11;;;;;;;8.50;3.45;;;8.70;99.90;;;;;;5113775;28;20434;-50
2023/04/08 04:28:39;;;;;;;5.13;2.90;;;8.70;99.90;;;;;;5112751;28;20418;-48
2023/04/08 04:31:06;;;;;;;6.53;3.40;;;8.50;99.90;;;;;;5111275;28;20726;-53
2023/04/08 04:33:35;;;;;;;6.60;4.00;;;8.50;99.90;;;;;;5110512;28;20583;-50
2023/04/08 04:36:02;;;;;;;7.50;4.53;;;8.50;99.90;;;;;;5112966;28;20423;-52
2023/04/08 04:38:29;;;;;;;7.72;3.97;;;8.40;99.90;;;;;;5113075;28;20836;-50
2023/04/08 04:40:57;;;;;;;8.07;4.45;;;8.40;99.90;;;;;;5114305;28;20507;-49
2023/04/08 04:43:25;;;;;;;8.38;4.22;;;8.40;99.90;;;;;;5115333;28;20455;-50
2023/04/08 04:45:52;;;;;;;9.07;5.60;;;8.40;99.90;;;;;;5115348;28;20431;-50
2023/04/08 04:48:19;;;;;;;7.20;4.67;;;8.40;99.90;;;;;;5114602;28;20885;-48
2023/04/08 04:50:55;;;;;;;6.88;4.90;;;8.40;99.90;;;;;;5115647;28;20753;-50
2023/04/08 04:53:22;;;;;;;7.60;4.78;;;8.40;99.90;;;;;;5115308;28;20420;-55
2023/04/08 04:55:50;;;;;;;7.85;4.35;;;8.40;99.90;;;;;;5114999;28;20725;-50
2023/04/08 04:58:18;;;;;;;6.55;4.28;;;8.40;99.90;;;;;;5114574;28;20430;-55
2023/04/08 05:00:45;;;;;;;8.17;5.10;;;8.40;99.90;;;;;;5115327;28;20455;-51
2023/04/08 05:03:12;;;;;;;8.20;5.35;;;8.30;99.90;;;;;;5115680;28;20453;-50
2023/04/08 05:05:40;;;;;;;10.15;6.30;;;8.30;99.90;;;;;;5115180;28;20831;-50
2023/04/08 05:08:08;;;;;;;10.77;6.27;;;8.20;99.90;;;;;;5114651;28;20495;-49
2023/04/08 05:10:35;;;;;;;8.45;5.50;;;8.10;99.90;;;;;;5113758;28;20680;-55
2023/04/08 05:13:02;;;;;;;7.45;5.13;;;8.20;99.90;;;;;;5113196;28;20412;-51
2023/04/08 05:15:29;;;;;;;9.10;5.75;;;8.20;99.90;;;;;;5113798;28;20423;-53
2023/04/08 05:17:57;;;;;;;7.70;5.37;;;8.20;99.90;;;;;;5115240;28;20713;-52
2023/04/08 05:20:24;;;;;;;8.43;5.82;;;8.10;99.90;;;;;;5114708;28;20416;-54
2023/04/08 05:22:51;;;;;;;7.82;5.50;;;8.10;99.90;;;;;;5114133;28;20857;-54
2023/04/08 05:25:20;;;;;;;10.07;6.55;;;8.20;99.90;;;;;;5114471;28;20416;-55
2023/04/08 05:27:47;;;;;;;9.13;5.82;;;8.30;99.90;;;;;;5114976;28;20500;-53
2023/04/08 05:30:15;;;;;;;9.35;5.97;;;8.30;99.90;;;;;;5115311;28;20416;-53
2023/04/08 05:32:42;;;;;;;9.35;5.90;;;8.30;99.90;;;;;;5114997;28;20902;-53
2023/04/08 05:35:10;;;;;;;9.45;5.65;;;8.30;99.90;;;;;;5115242;28;20422;-54
2023/04/08 05:37:37;;;;;;;8.32;5.90;;;8.30;99.90;;;;;;5115743;28;20447;-56
2023/04/08 05:40:05;;;;;;;7.85;5.40;;;8.30;99.90;;;;;;5112167;28;20420;-53
2023/04/08 05:42:34;;;;;;;8.43;4.70;;;8.30;99.90;;;;;;5112310;28;20432;-52
2023/04/08 05:45:01;;;;;;;9.50;5.78;;;8.30;99.90;;;;;;5101140;28;20436;-53
2023/04/08 05:47:28;;;;;;;6.22;4.47;;;8.20;99.90;;;;;;5112603;28;20436;-53
2023/04/08 05:49:55;;;;;;;7.40;4.90;;;8.40;99.90;;;;;;5098720;28;20425;-52
2023/04/08 05:52:23;;;;;;;6.95;4.30;;;8.60;99.90;;;;;;5102359;28;20420;-49
2023/04/08 05:54:50;;;;;;;7.03;4.70;;;8.80;99.90;;;;;;5105063;28;20519;-50
2023/04/08 05:57:17;;;;;;;7.05;4.93;;;9.00;99.90;;;;;;5093488;28;20512;-47
2023/04/08 05:59:46;;;;;;;6.30;4.40;;;9.30;99.90;;;;;;5101467;28;20435;-47
2023/04/08 06:02:13;;;;;;;7.38;4.78;;;9.40;99.90;;;;;;5102798;28;20430;-51
2023/04/08 06:04:40;;;;;;;8.27;4.80;;;9.30;99.90;;;;;;5093438;28;20446;-54
2023/04/08 06:07:07;;;;;;;8.45;5.57;;;9.20;99.90;;;;;;5101428;28;20749;-53
2023/04/08 06:09:36;;;;;;;8.53;6.47;;;9.00;99.90;;;;;;5110442;28;20417;-51
2023/04/08 06:12:04;;;;;;;6.70;5.00;;;8.90;99.90;;;;;;5096571;28;20534;-53
2023/04/08 06:14:31;;;;;;;7.35;5.05;;;8.80;99.90;;;;;;5103289;28;20438;-50
2023/04/08 06:17:00;;;;;;;7.60;5.77;;;8.70;99.90;;;;;;5100252;28;20725;-52
2023/04/08 06:19:27;;;;;;;6.95;5.30;;;8.70;99.90;;;;;;5111276;28;20457;-50
2023/04/08 06:21:57;;;;;;;7.63;4.90;;;8.80;99.90;;;;;;5099427;28;20436;-50
2023/04/08 06:24:26;;;;;;;7.70;5.50;;;9.00;99.90;;;;;;5102520;28;20434;-50
2023/04/08 06:26:53;;;;;;;7.75;5.20;;;9.00;99.90;;;;;;5096107;28;20536;-60
2023/04/08 06:29:20;;;;;;;6.63;3.92;;;8.90;99.90;;;;;;5100900;28;20487;-60
2023/04/08 06:31:48;;;;;;;7.97;4.67;;;8.90;99.90;;;;;;5098831;28;20821;-61
2023/04/08 06:34:16;;;;;;;7.40;4.80;;;8.90;99.90;;;;;;5097820;28;20418;-61
2023/04/08 06:36:43;;;;;;;6.23;3.57;;;8.90;99.90;;;;;;5102554;28;20436;-53
2023/04/08 06:39:10;;;;;;;6.93;4.60;;;9.00;99.90;;;;;;5096692;28;20440;-53
2023/04/08 06:41:38;;;;;;;7.07;5.47;;;9.10;99.90;;;;;;5104115;28;20450;-53
2023/04/08 06:44:05;;;;;;;6.40;3.90;;;9.20;99.90;;;;;;5097466;28;20414;-49
2023/04/08 06:46:32;;;;;;;6.65;4.32;;;9.20;99.90;;;;;;5096637;28;20418;-51
2023/04/08 06:48:59;;;;;;;6.55;3.95;;;9.20;99.90;;;;;;5113310;28;20416;-49
2023/04/08 06:51:28;;;;;;;5.65;3.10;;;9.20;99.90;;;;;;5096838;28;20568;-52
2023/04/08 06:53:55;;;;;;;6.43;3.92;;;9.50;99.90;;;;;;5102683;28;21126;-49
2023/04/08 06:56:24;;;;;;;4.63;2.90;;;9.60;99.90;;;;;;5103836;28;20434;-52
2023/04/08 06:58:52;;;;;;;8.02;5.10;;;9.80;99.90;;;;;;5096066;28;20465;-54
2023/04/08 07:01:19;;;;;;;8.20;3.80;;;9.70;99.90;;;;;;5098111;28;20432;-51
2023/04/08 07:03:46;;;;;;;5.35;3.20;;;9.50;99.90;;;;;;5109496;28;20530;-49
2023/04/08 07:06:13;;;;;;;7.75;5.28;;;9.70;99.90;;;;;;5107087;28;20420;-52
2023/04/08 07:08:42;;;;;;;4.57;3.30;;;9.70;99.90;;;;;;5101885;28;20422;-51
2023/04/08 07:11:10;;;;;;;7.55;4.10;;;9.70;99.90;;;;;;5105329;28;20719;-50
2023/04/08 07:13:37;;;;;;;5.18;3.40;;;9.70;99.90;;;;;;5110503;28;20418;-49
2023/04/08 07:16:04;;;;;;;5.00;3.90;;;9.60;99.90;;;;;;5096107;28;20711;-50
2023/04/08 07:18:32;;;;;;;6.00;3.60;;;9.80;99.90;;;;;;5100064;28;20426;-49
2023/04/08 07:20:59;;;;;;;6.65;3.63;;;9.70;99.90;;;;;;5102965;28;20442;-54
2023/04/08 07:23:27;;;;;;;6.10;4.15;;;9.80;99.90;;;;;;5094864;28;20860;-49
2023/04/08 07:25:55;;;;;;;8.10;4.30;;;9.80;99.90;;;;;;5098075;28;20438;-52
2023/04/08 07:28:23;;;;;;;7.00;3.92;;;9.70;99.90;;;;;;5106528;28;20904;-49
2023/04/08 07:30:50;;;;;;;7.22;3.55;;;9.30;99.90;;;;;;5116228;28;20795;-49
2023/04/08 07:33:17;;;;;;;5.93;4.38;;;9.50;99.90;;;;;;5095183;28;20840;-48
2023/04/08 07:35:45;;;;;;;4.93;3.00;;;9.40;99.90;;;;;;5101143;28;20798;-51
2023/04/08 07:38:12;;;;;;;6.30;4.20;;;9.30;99.90;;;;;;5109648;28;20470;-52
2023/04/08 07:40:39;;;;;;;6.13;4.20;;;9.60;99.90;;;;;;5099146;28;20416;-51
2023/04/08 07:43:08;;;;;;;7.30;5.37;;;10.00;99.90;;;;;;5097457;28;20425;-50
2023/04/08 07:45:36;;;;;;;4.00;2.88;;;10.00;99.90;;;;;;5107050;28;20849;-51
2023/04/08 07:48:03;;;;;;;5.90;3.67;;;10.30;99.90;;;;;;5093395;28;20433;-51
2023/04/08 07:50:30;;;;;;;6.75;3.60;;;10.60;99.90;;;;;;5108993;28;20701;-54
2023/04/08 07:52:57;;;;;;;5.80;4.53;;;10.70;99.90;;;;;;5104963;28;20432;-53
2023/04/08 07:55:24;;;;;;;5.80;3.47;;;10.60;99.90;;;;;;5102538;28;20426;-51
2023/04/08 07:57:52;;;;;;;4.88;3.10;;;10.40;99.90;;;;;;5100523;28;20438;-49
2023/04/08 08:00:21;;;;;;;5.28;3.33;;;10.50;99.90;;;;;;5101200;28;20430;-52
2023/04/08 08:02:48;;;;;;;5.03;4.15;;;10.50;99.90;;;;;;5097631;28;20432;-52
2023/04/08 08:05:15;;;;;;;4.13;3.35;;;10.50;99.90;;;;;;5094549;28;20874;-53
2023/04/08 08:07:42;;;;;;;4.70;3.38;;;10.40;99.90;;;;;;5101478;28;20428;-51
2023/04/08 08:10:10;;;;;;;4.87;3.50;;;10.40;99.90;;;;;;5104872;28;20876;-51
2023/04/08 08:12:37;;;;;;;4.65;3.47;;;10.60;99.90;;;;;;5097859;28;20433;-55
2023/04/08 08:15:05;;;;;;;6.25;4.63;;;10.60;99.90;;;;;;5099171;28;20432;-52
2023/04/08 08:17:34;;;;;;;6.45;4.90;;;10.40;99.90;;;;;;5104828;28;20438;-55
2023/04/08 08:20:03;;;;;;;5.05;3.10;;;10.40;99.90;;;;;;5107832;28;20773;-50
2023/04/08 08:22:30;;;;;;;5.55;4.25;;;10.50;99.90;;;;;;5100682;28;20425;-54
2023/04/08 08:24:58;;;;;;;4.10;2.70;;;10.60;99.90;;;;;;5102653;28;20519;-50
2023/04/08 08:27:25;;;;;;;4.82;3.30;;;10.80;99.90;;;;;;5098415;28;20851;-52
2023/04/08 08:29:52;;;;;;;6.18;4.47;;;10.90;99.90;;;;;;5106693;28;20421;-52
2023/04/08 08:32:20;;;;;;;4.53;3.17;;;11.00;99.90;;;;;;5097540;28;20753;-51
2023/04/08 08:34:48;;;;;;;8.47;4.10;;;11.00;99.90;;;;;;5104745;28;20742;-51
2023/04/08 08:37:15;;;;;;;5.40;4.60;;;11.10;99.90;;;;;;5107702;28;20452;-51
2023/04/08 08:39:43;;;;;;;5.65;4.47;;;10.80;99.90;;;;;;5100779;28;20425;-53
2023/04/08 08:42:20;;;;;;;5.88;3.90;;;10.50;99.90;;;;;;5095549;28;20440;-53
2023/04/08 08:44:47;;;;;;;5.50;3.30;;;10.30;99.90;;;;;;5100840;28;20420;-53
2023/04/08 08:47:15;;;;;;;4.82;2.97;;;10.40;99.90;;;;;;5109300;28;20524;-50
2023/04/08 08:49:42;;;;;;;5.00;3.08;;;10.70;99.90;;;;;;5091824;28;20717;-52
2023/04/08 08:52:11;;;;;;;5.35;3.60;;;11.20;99.90;;;;;;5103425;28;20438;-51
2023/04/08 08:54:38;;;;;;;3.95;3.05;;;11.50;99.90;;;;;;5099740;28;20435;-51
2023/04/08 08:57:06;;;;;;;4.93;3.63;;;11.60;99.90;;;;;;5098818;28;20836;-52
2023/04/08 08:59:33;;;;;;;4.93;4.43;;;11.50;99.90;;;;;;5098979;28;20430;-49
2023/04/08 09:02:01;;;;;;;4.90;3.65;;;11.60;99.90;;;;;;5098167;28;20494;-49
2023/04/08 09:04:28;;;;;;;5.65;4.38;;;11.70;99.90;;;;;;5100019;28;20441;-51
2023/04/08 09:07:12;;;;;;;5.15;4.65;;;11.90;99.90;;;;;;5096533;28;20460;-50
2023/04/08 09:09:49;;;;;;;4.60;3.93;;;12.00;99.90;;;;;;5104777;28;20426;-50
2023/04/08 09:12:16;;;;;;;4.32;3.92;;;12.10;99.90;;;;;;5095425;28;20750;-48
2023/04/08 09:14:43;;;;;;;5.03;4.17;;;12.20;99.90;;;;;;5109756;28;20495;-47
2023/04/08 09:17:11;;;;;;;5.75;4.47;;;12.20;99.90;;;;;;5093795;28;20437;-50
2023/04/08 09:19:38;;;;;;;5.75;3.92;;;12.30;99.90;;;;;;5098935;28;20512;-48
2023/04/08 09:22:06;;;;;;;5.63;4.20;;;12.30;99.90;;;;;;5099929;28;20447;-53
2023/04/08 09:24:36;;;;;;;4.88;4.25;;;12.20;99.90;;;;;;5096484;28;20437;-50
2023/04/08 09:27:03;;;;;;;5.30;4.80;;;11.80;99.90;;;;;;5106826;28;20894;-52
2023/04/08 09:29:30;;;;;;;5.55;4.60;;;11.70;99.90;;;;;;5092288;28;20434;-52
2023/04/08 09:31:58;;;;;;;5.40;3.92;;;11.80;99.90;;;;;;5100489;28;20835;-49
2023/04/08 09:34:27;;;;;;;6.37;3.90;;;12.00;99.90;;;;;;5101205;28;20431;-53
2023/04/08 09:36:55;;;;;;;4.90;4.40;;;12.20;99.90;;;;;;5101105;28;20548;-54
2023/04/08 09:39:23;;;;;;;4.63;3.33;;;12.30;99.90;;;;;;5091870;28;20430;-52
2023/04/08 09:41:52;;;;;;;4.10;3.65;;;12.50;99.90;;;;;;5100296;28;20443;-51
2023/04/08 09:44:22;;;;;;;5.80;5.20;;;12.70;99.90;;;;;;5104357;28;20421;-49
2023/04/08 09:47:01;;;;;;;4.03;3.53;;;12.40;99.90;;;;;;5103732;28;20436;-51
2023/04/08 09:49:32;;;;;;;4.85;4.40;;;12.20;99.90;;;;;;5105105;28;20430;-52
2023/04/08 09:52:07;;;;;;;5.03;4.38;;;12.40;99.90;;;;;;5095860;28;20463;-50
2023/04/08 09:54:42;;;;;;;5.15;4.65;;;12.40;99.90;;;;;;5107722;28;20437;-52
2023/04/08 09:57:16;;;;;;;6.55;4.63;;;12.60;99.90;;;;;;5101465;28;20428;-52
2023/04/08 09:59:50;;;;;;;5.45;4.88;;;13.00;99.90;;;;;;5096855;28;20425;-50
2023/04/08 10:02:25;;;;;;;5.50;3.90;;;13.10;99.90;;;;;;5107262;28;20424;-50
2023/04/08 10:04:54;;;;;;;6.00;4.63;;;13.20;99.90;;;;;;5101099;28;20420;-57
2023/04/08 10:07:22;;;;;;;5.20;4.18;;;13.40;99.90;;;;;;5097966;28;20862;-53
2023/04/08 10:09:49;;;;;;;4.80;3.42;;;13.50;99.90;;;;;;5098225;28;20456;-53
2023/04/08 10:12:18;;;;;;;4.32;3.75;;;13.60;99.90;;;;;;5105276;28;20428;-53
2023/04/08 10:15:22;;;;;;;4.13;3.72;;;13.80;99.90;;;;;;5100305;28;20867;-48
2023/04/08 10:17:49;;;;;;;4.05;3.42;;;13.80;99.90;;;;;;5097427;28;20918;-53
2023/04/08 10:20:42;;;;;;;5.90;4.00;;;13.40;99.90;;;;;;5100463;28;20428;-52
2023/04/08 10:23:12;;;;;;;4.10;3.80;;;13.70;99.90;;;;;;5096084;28;20418;-52
2023/04/08 10:25:40;;;;;;;4.70;4.07;;;13.80;99.90;;;;;;5096635;28;20452;-52
2023/04/08 10:28:28;;;;;;;4.07;3.65;;;13.30;99.90;;;;;;5097494;28;20416;-51
2023/04/08 10:31:01;;;;;;;5.30;4.60;;;13.30;99.90;;;;;;5098124;28;20849;-55
2023/04/08 10:33:33;;;;;;;4.88;3.38;;;13.30;99.90;;;;;;5097115;28;20426;-50
2023/04/08 10:36:08;;;;;;;4.78;3.08;;;13.30;99.90;;;;;;5097310;28;20749;-49
2023/04/08 10:38:35;;;;;;;4.63;4.10;;;13.50;99.90;;;;;;5099918;28;20445;-51
2023/04/08 10:41:05;;;;;;;5.03;4.15;;;13.60;99.90;;;;;;5097243;28;20757;-50
2023/04/08 10:43:37;;;;;;;4.47;4.07;;;13.50;99.90;;;;;;5099107;28;20761;-51
2023/04/08 10:46:05;;;;;;;4.53;4.10;;;13.40;99.90;;;;;;5105701;28;20726;-50
2023/04/08 10:48:32;;;;;;;4.30;3.90;;;13.10;99.90;;;;;;5104016;28;20473;-52
2023/04/08 10:51:02;;;;;;;5.35;4.82;;;12.90;99.90;;;;;;5098244;28;20434;-52
2023/04/08 10:53:31;;;;;;;5.63;4.50;;;12.90;99.90;;;;;;5107863;28;20776;-50
2023/04/08 10:56:05;;;;;;;4.87;4.37;;;12.80;99.90;;;;;;5100469;28;20541;-49
2023/04/08 10:58:35;;;;;;;5.85;5.03;;;12.70;99.90;;;;;;5104726;28;20420;-49
2023/04/08 11:01:07;;;;;;;6.68;4.63;;;12.60;99.90;;;;;;5105688;28;20867;-51
2023/04/08 11:03:35;;;;;;;5.47;4.97;;;12.30;99.90;;;;;;5093762;28;20467;-54
2023/04/08 11:06:04;;;;;;;5.60;5.00;;;12.10;99.90;;;;;;5101115;28;20828;-48
2023/04/08 11:08:32;;;;;;;6.40;4.95;;;12.10;99.90;;;;;;5097963;28;20434;-55
2023/04/08 11:11:01;;;;;;;7.30;5.40;;;12.20;99.90;;;;;;5098180;28;20434;-53
2023/04/08 11:13:28;;;;;;;5.33;4.83;;;12.10;99.90;;;;;;5105138;28;20422;-55
2023/04/08 11:15:58;;;;;;;5.25;4.53;;;12.00;99.90;;;;;;5100589;28;20432;-50
2023/04/08 11:18:26;;;;;;;5.30;4.80;;;12.20;99.90;;;;;;5107230;28;20433;-52
2023/04/08 11:20:54;;;;;;;5.63;4.82;;;12.10;99.90;;;;;;5101204;28;20520;-52
2023/04/08 11:23:22;;;;;;;6.00;4.05;;;12.00;99.90;;;;;;5104134;28;20543;-54
2023/04/08 11:25:49;;;;;;;6.53;4.90;;;12.10;99.90;;;;;;5111249;28;20457;-53
2023/04/08 11:28:18;;;;;;;5.20;4.70;;;12.10;99.90;;;;;;5112900;28;20480;-50
2023/04/08 11:30:46;;;;;;;5.93;4.50;;;11.90;99.90;;;;;;5110015;28;20436;-54
2023/04/08 11:33:15;;;;;;;5.93;5.05;;;11.90;99.90;;;;;;5098766;28;20832;-53
2023/04/08 11:35:43;;;;;;;5.78;4.90;;;12.00;99.90;;;;;;5113239;28;20448;-49
2023/04/08 11:38:11;;;;;;;5.70;5.10;;;12.00;99.90;;;;;;5116522;28;20416;-52
2023/04/08 11:40:39;;;;;;;5.63;4.30;;;12.10;99.90;;;;;;5100097;28;20736;-54
2023/04/08 11:43:10;;;;;;;5.10;4.60;;;12.10;99.90;;;;;;5095270;28;20440;-55
2023/04/08 11:45:39;;;;;;;4.57;4.18;;;12.00;99.90;;;;;;5094338;28;20434;-53
2023/04/08 11:48:10;;;;;;;5.47;4.15;;;12.10;99.90;;;;;;5092575;28;20426;-53
2023/04/08 11:50:38;;;;;;;5.93;5.32;;;12.00;99.90;;;;;;5092358;28;20414;-53
2023/04/08 11:53:18;;;;;;;5.00;4.50;;;11.90;99.90;;;;;;5092164;27;20442;-55
2023/04/08 11:55:47;;;;;;;5.07;4.10;;;11.80;99.90;;;;;;5107965;28;20783;-52
2023/04/08 11:58:14;;;;;;;5.75;4.78;;;11.90;99.90;;;;;;5094979;28;20429;-52
2023/04/08 12:00:42;;;;;;;5.22;4.65;;;12.10;99.90;;;;;;5094592;28;20875;-49
2023/04/08 12:03:13;;;;;;;4.57;4.07;;;12.20;99.90;;;;;;5094061;28;20440;-53
2023/04/08 12:05:42;;;;;;;5.78;4.78;;;12.20;99.90;;;;;;5097461;28;20503;-51
2023/04/08 12:08:10;;;;;;;3.60;3.30;;;12.20;99.90;;;;;;5092772;28;20449;-51
2023/04/08 12:10:39;;;;;;;6.00;5.40;;;12.00;99.90;;;;;;5098227;28;20939;-53
2023/04/08 12:13:07;;;;;;;4.97;3.63;;;12.10;99.90;;;;;;5097937;28;20493;-55
2023/04/08 12:15:37;;;;;;;4.83;4.33;;;12.00;99.90;;;;;;5096771;28;20434;-52
2023/04/08 12:18:05;;;;;;;5.75;5.25;;;12.20;99.90;;;;;;5095571;28;20449;-53
2023/04/08 12:20:32;;;;;;;4.57;4.15;;;12.30;99.90;;;;;;5094417;28;21043;-53
2023/04/08 12:23:02;;;;;;;5.50;4.95;;;12.10;99.90;;;;;;5097991;28;20437;-53
2023/04/08 12:25:30;;;;;;;5.38;4.40;;;12.20;99.90;;;;;;5098264;28;20517;-51
2023/04/08 12:27:57;;;;;;;4.60;4.20;;;12.30;99.90;;;;;;5101258;28;20532;-52
2023/04/08 12:30:24;;;;;;;5.05;4.07;;;12.50;99.90;;;;;;5112769;28;20514;-51
2023/04/08 12:32:53;;;;;;;5.30;3.95;;;12.50;99.90;;;;;;5114488;28;20430;-48
2023/04/08 12:35:21;;;;;;;4.82;4.35;;;12.70;99.90;;;;;;5111316;28;20908;-53
2023/04/08 12:37:48;;;;;;;5.78;4.13;;;12.60;99.90;;;;;;5103427;28;20428;-52
2023/04/08 12:40:18;;;;;;;4.90;3.90;;;12.80;99.90;;;;;;5096820;28;20429;-54
2023/04/08 12:42:45;;;;;;;4.93;4.23;;;13.00;99.90;;;;;;5094017;28;20479;-52
2023/04/08 12:45:12;;;;;;;4.57;3.50;;;13.10;99.90;;;;;;5108385;28;20420;-53
2023/04/08 12:47:42;;;;;;;4.18;3.72;;;12.90;99.90;;;;;;5102784;28;20729;-55
2023/04/08 12:50:10;;;;;;;6.10;4.28;;;12.80;99.90;;;;;;5095680;28;20724;-57
2023/04/08 12:52:37;;;;;;;7.38;6.40;;;12.70;99.90;;;;;;5101382;28;20432;-55
2023/04/08 12:55:05;;;;;;;4.82;4.15;;;12.60;99.90;;;;;;5094729;28;20519;-54
2023/04/08 12:57:34;;;;;;;5.50;4.85;;;12.40;99.90;;;;;;5093323;28;20904;-54
2023/04/08 13:00:01;;;;;;;4.70;4.30;;;12.10;99.90;;;;;;5092046;28;20581;-56